sensor_id;sensor_type;location;lat;lon;timestamp;temperature;humidity
530;DHT22;251;48.704;9.210;2023-12-20T00:00:12;5.00;75.90
530;DHT22;251;48.704;9.210;2023-12-20T00:02:39;4.90;75.10
530;DHT22;251;48.704;9.210;2023-12-20T00:05:10;4.90;75.10
530;DHT22;251;48.704;9.210;2023-12-20T00:07:39;4.90;74.90
530;DHT22;251;48.704;9.210;2023-12-20T00:10:06;5.00;74.50
530;DHT22;251;48.704;9.210;2023-12-20T00:12:33;5.00;74.40
530;DHT22;251;48.704;9.210;2023-12-20T00:15:00;5.00;74.80
530;DHT22;251;48.704;9.210;2023-12-20T00:17:26;5.00;74.60
530;DHT22;251;48.704;9.210;2023-12-20T00:19:53;5.00;73.20
530;DHT22;251;48.704;9.210;2023-12-20T00:22:20;5.10;72.40
530;DHT22;251;48.704;9.210;2023-12-20T00:24:48;5.10;72.10
530;DHT22;251;48.704;9.210;2023-12-20T00:27:15;5.10;72.40
530;DHT22;251;48.704;9.210;2023-12-20T00:29:41;5.10;72.50
530;DHT22;251;48.704;9.210;2023-12-20T00:32:13;5.10;72.10
530;DHT22;251;48.704;9.210;2023-12-20T00:34:40;5.10;72.20
530;DHT22;251;48.704;9.210;2023-12-20T00:37:06;5.10;72.20
530;DHT22;251;48.704;9.210;2023-12-20T00:39:33;5.10;72.60
530;DHT22;251;48.704;9.210;2023-12-20T00:42:01;5.10;72.00
530;DHT22;251;48.704;9.210;2023-12-20T00:44:28;5.10;74.40
530;DHT22;251;48.704;9.210;2023-12-20T00:46:55;5.00;74.10
530;DHT22;251;48.704;9.210;2023-12-20T00:49:22;5.00;75.60
530;DHT22;251;48.704;9.210;2023-12-20T00:51:51;5.00;76.30
530;DHT22;251;48.704;9.210;2023-12-20T00:54:18;5.00;79.80
530;DHT22;251;48.704;9.210;2023-12-20T00:56:45;5.00;83.60
530;DHT22;251;48.704;9.210;2023-12-20T00:59:13;5.00;84.40
530;DHT22;251;48.704;9.210;2023-12-20T01:01:40;5.00;84.50
530;DHT22;251;48.704;9.210;2023-12-20T01:04:07;5.00;84.70
530;DHT22;251;48.704;9.210;2023-12-20T01:06:34;5.00;86.60
530;DHT22;251;48.704;9.210;2023-12-20T01:09:01;4.90;90.50
530;DHT22;251;48.704;9.210;2023-12-20T01:11:28;4.90;91.90
530;DHT22;251;48.704;9.210;2023-12-20T01:13:55;4.90;93.80
530;DHT22;251;48.704;9.210;2023-12-20T01:16:23;4.90;94.70
530;DHT22;251;48.704;9.210;2023-12-20T01:18:49;4.90;94.60
530;DHT22;251;48.704;9.210;2023-12-20T01:21:16;4.90;96.60
530;DHT22;251;48.704;9.210;2023-12-20T01:23:43;4.90;97.40
530;DHT22;251;48.704;9.210;2023-12-20T01:26:10;4.90;98.20
530;DHT22;251;48.704;9.210;2023-12-20T01:28:37;4.80;98.40
530;DHT22;251;48.704;9.210;2023-12-20T01:31:04;4.80;99.90
530;DHT22;251;48.704;9.210;2023-12-20T01:33:33;4.90;99.90
530;DHT22;251;48.704;9.210;2023-12-20T01:35:59;4.90;99.90
530;DHT22;251;48.704;9.210;2023-12-20T01:38:26;4.80;99.90
530;DHT22;251;48.704;9.210;2023-12-20T01:40:53;4.80;99.90
530;DHT22;251;48.704;9.210;2023-12-20T01:43:20;4.70;99.90
530;DHT22;251;48.704;9.210;2023-12-20T01:45:47;4.70;99.90
530;DHT22;251;48.704;9.210;2023-12-20T01:48:14;4.70;99.90
530;DHT22;251;48.704;9.210;2023-12-20T01:50:44;4.80;99.90
530;DHT22;251;48.704;9.210;2023-12-20T01:53:12;4.70;99.90
530;DHT22;251;48.704;9.210;2023-12-20T01:55:40;4.70;99.90
530;DHT22;251;48.704;9.210;2023-12-20T01:58:07;4.70;99.90
530;DHT22;251;48.704;9.210;2023-12-20T02:00:36;4.70;99.90
530;DHT22;251;48.704;9.210;2023-12-20T02:03:03;4.70;99.90
530;DHT22;251;48.704;9.210;2023-12-20T02:05:30;4.70;99.90
530;DHT22;251;48.704;9.210;2023-12-20T02:07:59;4.70;99.90
530;DHT22;251;48.704;9.210;2023-12-20T02:10:26;4.70;99.90
530;DHT22;251;48.704;9.210;2023-12-20T02:12:54;4.70;99.90
530;DHT22;251;48.704;9.210;2023-12-20T02:15:21;4.70;99.90
530;DHT22;251;48.704;9.210;2023-12-20T02:17:48;4.70;99.90
530;DHT22;251;48.704;9.210;2023-12-20T02:20:15;4.70;99.90
530;DHT22;251;48.704;9.210;2023-12-20T02:22:43;4.70;99.90
530;DHT22;251;48.704;9.210;2023-12-20T02:25:10;4.70;99.90
530;DHT22;251;48.704;9.210;2023-12-20T02:27:38;4.70;99.90
530;DHT22;251;48.704;9.210;2023-12-20T02:30:06;4.70;99.90
530;DHT22;251;48.704;9.210;2023-12-20T02:32:33;4.70;99.90
530;DHT22;251;48.704;9.210;2023-12-20T02:35:00;4.70;99.90
530;DHT22;251;48.704;9.210;2023-12-20T02:37:27;4.70;99.90
530;DHT22;251;48.704;9.210;2023-12-20T02:39:55;4.70;99.90
530;DHT22;251;48.704;9.210;2023-12-20T02:42:22;4.70;99.90
530;DHT22;251;48.704;9.210;2023-12-20T02:44:49;4.70;99.90
530;DHT22;251;48.704;9.210;2023-12-20T02:47:15;4.70;99.90
530;DHT22;251;48.704;9.210;2023-12-20T02:49:42;4.70;99.90
530;DHT22;251;48.704;9.210;2023-12-20T02:52:09;4.70;99.90
530;DHT22;251;48.704;9.210;2023-12-20T02:54:36;4.70;99.90
530;DHT22;251;48.704;9.210;2023-12-20T02:57:04;4.70;99.90
530;DHT22;251;48.704;9.210;2023-12-20T02:59:31;4.70;99.90
530;DHT22;251;48.704;9.210;2023-12-20T03:01:58;4.80;99.90
530;DHT22;251;48.704;9.210;2023-12-20T03:04:25;4.80;99.90
530;DHT22;251;48.704;9.210;2023-12-20T03:06:51;4.70;99.90
530;DHT22;251;48.704;9.210;2023-12-20T03:09:18;4.70;99.90
530;DHT22;251;48.704;9.210;2023-12-20T03:11:45;4.70;99.90
530;DHT22;251;48.704;9.210;2023-12-20T03:14:13;4.70;99.90
530;DHT22;251;48.704;9.210;2023-12-20T03:16:40;4.70;99.90
530;DHT22;251;48.704;9.210;2023-12-20T03:19:06;4.70;99.90
530;DHT22;251;48.704;9.210;2023-12-20T03:21:33;4.60;99.90
530;DHT22;251;48.704;9.210;2023-12-20T03:24:00;4.70;99.90
530;DHT22;251;48.704;9.210;2023-12-20T03:26:27;4.60;99.90
530;DHT22;251;48.704;9.210;2023-12-20T03:28:54;4.60;99.90
530;DHT22;251;48.704;9.210;2023-12-20T03:31:22;4.60;99.90
530;DHT22;251;48.704;9.210;2023-12-20T03:33:49;4.60;99.90
530;DHT22;251;48.704;9.210;2023-12-20T03:36:16;4.60;99.90
530;DHT22;251;48.704;9.210;2023-12-20T03:38:43;4.60;99.90
530;DHT22;251;48.704;9.210;2023-12-20T03:41:10;4.60;99.90
530;DHT22;251;48.704;9.210;2023-12-20T03:43:36;4.50;99.90
530;DHT22;251;48.704;9.210;2023-12-20T03:46:03;4.50;99.90
530;DHT22;251;48.704;9.210;2023-12-20T03:48:31;4.50;99.90
530;DHT22;251;48.704;9.210;2023-12-20T03:50:58;4.50;99.90
530;DHT22;251;48.704;9.210;2023-12-20T03:53:25;4.50;99.90
530;DHT22;251;48.704;9.210;2023-12-20T03:55:52;4.50;99.90
530;DHT22;251;48.704;9.210;2023-12-20T03:58:18;4.50;99.90
530;DHT22;251;48.704;9.210;2023-12-20T04:00:45;4.50;99.90
530;DHT22;251;48.704;9.210;2023-12-20T04:03:13;4.50;99.90
530;DHT22;251;48.704;9.210;2023-12-20T04:05:41;4.50;99.90
530;DHT22;251;48.704;9.210;2023-12-20T04:08:09;4.50;99.90
530;DHT22;251;48.704;9.210;2023-12-20T04:10:35;4.50;99.90
530;DHT22;251;48.704;9.210;2023-12-20T04:13:03;4.50;99.90
530;DHT22;251;48.704;9.210;2023-12-20T04:15:30;4.50;99.90
530;DHT22;251;48.704;9.210;2023-12-20T04:17:56;4.50;99.90
530;DHT22;251;48.704;9.210;2023-12-20T04:20:23;4.50;99.90
530;DHT22;251;48.704;9.210;2023-12-20T04:22:51;4.50;99.90
530;DHT22;251;48.704;9.210;2023-12-20T04:25:18;4.50;99.90
530;DHT22;251;48.704;9.210;2023-12-20T04:27:45;4.50;99.90
530;DHT22;251;48.704;9.210;2023-12-20T04:30:13;4.50;99.90
530;DHT22;251;48.704;9.210;2023-12-20T04:32:40;4.50;99.90
530;DHT22;251;48.704;9.210;2023-12-20T04:35:07;4.50;99.90
530;DHT22;251;48.704;9.210;2023-12-20T04:37:34;4.50;99.90
530;DHT22;251;48.704;9.210;2023-12-20T04:40:02;4.50;99.90
530;DHT22;251;48.704;9.210;2023-12-20T04:42:30;4.40;99.90
530;DHT22;251;48.704;9.210;2023-12-20T04:44:57;4.40;99.90
530;DHT22;251;48.704;9.210;2023-12-20T04:47:24;4.40;99.90
530;DHT22;251;48.704;9.210;2023-12-20T04:49:51;4.40;99.90
530;DHT22;251;48.704;9.210;2023-12-20T04:52:17;4.40;99.90
530;DHT22;251;48.704;9.210;2023-12-20T04:54:44;4.40;99.90
530;DHT22;251;48.704;9.210;2023-12-20T04:57:13;4.40;99.90
530;DHT22;251;48.704;9.210;2023-12-20T04:59:39;4.40;99.90
530;DHT22;251;48.704;9.210;2023-12-20T05:02:06;4.40;99.90
530;DHT22;251;48.704;9.210;2023-12-20T05:04:33;4.40;99.90
530;DHT22;251;48.704;9.210;2023-12-20T05:07:00;4.40;99.90
530;DHT22;251;48.704;9.210;2023-12-20T05:09:26;4.40;99.90
530;DHT22;251;48.704;9.210;2023-12-20T05:11:53;4.40;99.90
530;DHT22;251;48.704;9.210;2023-12-20T05:14:21;4.40;99.90
530;DHT22;251;48.704;9.210;2023-12-20T05:16:48;4.40;99.90
530;DHT22;251;48.704;9.210;2023-12-20T05:19:15;4.40;99.90
530;DHT22;251;48.704;9.210;2023-12-20T05:21:41;4.40;99.90
530;DHT22;251;48.704;9.210;2023-12-20T05:24:08;4.40;99.90
530;DHT22;251;48.704;9.210;2023-12-20T05:26:35;4.40;99.90
530;DHT22;251;48.704;9.210;2023-12-20T05:29:02;4.40;99.90
530;DHT22;251;48.704;9.210;2023-12-20T05:31:31;4.40;99.90
530;DHT22;251;48.704;9.210;2023-12-20T05:33:58;4.40;99.90
530;DHT22;251;48.704;9.210;2023-12-20T05:36:25;4.40;99.90
530;DHT22;251;48.704;9.210;2023-12-20T05:38:52;4.40;99.90
530;DHT22;251;48.704;9.210;2023-12-20T05:41:18;4.40;99.90
530;DHT22;251;48.704;9.210;2023-12-20T05:43:47;4.40;99.90
530;DHT22;251;48.704;9.210;2023-12-20T05:46:13;4.40;99.90
530;DHT22;251;48.704;9.210;2023-12-20T05:48:42;4.40;99.90
530;DHT22;251;48.704;9.210;2023-12-20T05:51:11;4.40;99.90
530;DHT22;251;48.704;9.210;2023-12-20T05:53:38;4.40;99.90
530;DHT22;251;48.704;9.210;2023-12-20T05:56:05;4.40;99.90
530;DHT22;251;48.704;9.210;2023-12-20T05:58:32;4.40;99.90
530;DHT22;251;48.704;9.210;2023-12-20T06:00:59;4.40;99.90
530;DHT22;251;48.704;9.210;2023-12-20T06:03:25;4.40;99.90
530;DHT22;251;48.704;9.210;2023-12-20T06:05:54;4.40;99.90
530;DHT22;251;48.704;9.210;2023-12-20T06:08:20;4.40;99.90
530;DHT22;251;48.704;9.210;2023-12-20T06:10:47;4.40;99.90
530;DHT22;251;48.704;9.210;2023-12-20T06:13:14;4.40;99.90
530;DHT22;251;48.704;9.210;2023-12-20T06:15:41;4.40;99.90
530;DHT22;251;48.704;9.210;2023-12-20T06:18:08;4.40;99.90
530;DHT22;251;48.704;9.210;2023-12-20T06:20:35;4.40;99.90
530;DHT22;251;48.704;9.210;2023-12-20T06:23:04;4.30;99.90
530;DHT22;251;48.704;9.210;2023-12-20T06:25:30;4.30;99.90
530;DHT22;251;48.704;9.210;2023-12-20T06:27:57;4.30;99.90
530;DHT22;251;48.704;9.210;2023-12-20T06:30:24;4.30;99.90
530;DHT22;251;48.704;9.210;2023-12-20T06:32:53;4.30;99.90
530;DHT22;251;48.704;9.210;2023-12-20T06:35:20;4.30;99.90
530;DHT22;251;48.704;9.210;2023-12-20T06:37:46;4.30;99.90
530;DHT22;251;48.704;9.210;2023-12-20T06:40:15;4.30;99.90
530;DHT22;251;48.704;9.210;2023-12-20T06:42:42;4.30;99.90
530;DHT22;251;48.704;9.210;2023-12-20T06:45:10;4.30;99.90
530;DHT22;251;48.704;9.210;2023-12-20T06:47:37;4.30;99.90
530;DHT22;251;48.704;9.210;2023-12-20T06:50:04;4.30;99.90
530;DHT22;251;48.704;9.210;2023-12-20T06:52:32;4.30;99.90
530;DHT22;251;48.704;9.210;2023-12-20T06:54:58;4.30;99.90
530;DHT22;251;48.704;9.210;2023-12-20T06:57:26;4.30;99.90
530;DHT22;251;48.704;9.210;2023-12-20T06:59:53;4.30;99.90
530;DHT22;251;48.704;9.210;2023-12-20T07:02:20;4.30;99.90
530;DHT22;251;48.704;9.210;2023-12-20T07:04:48;4.30;99.90
530;DHT22;251;48.704;9.210;2023-12-20T07:07:14;4.30;99.90
530;DHT22;251;48.704;9.210;2023-12-20T07:09:41;4.30;99.90
530;DHT22;251;48.704;9.210;2023-12-20T07:12:08;4.40;99.90
530;DHT22;251;48.704;9.210;2023-12-20T07:14:36;4.30;99.90
530;DHT22;251;48.704;9.210;2023-12-20T07:17:03;4.30;99.90
530;DHT22;251;48.704;9.210;2023-12-20T07:19:30;4.30;99.90
530;DHT22;251;48.704;9.210;2023-12-20T07:21:57;4.30;99.90
530;DHT22;251;48.704;9.210;2023-12-20T07:24:24;4.30;99.90
530;DHT22;251;48.704;9.210;2023-12-20T07:26:51;4.30;99.90
530;DHT22;251;48.704;9.210;2023-12-20T07:29:18;4.30;99.90
530;DHT22;251;48.704;9.210;2023-12-20T07:31:46;4.30;99.90
530;DHT22;251;48.704;9.210;2023-12-20T07:34:13;4.30;99.90
530;DHT22;251;48.704;9.210;2023-12-20T07:36:40;4.30;99.90
530;DHT22;251;48.704;9.210;2023-12-20T07:39:06;4.30;99.90
530;DHT22;251;48.704;9.210;2023-12-20T07:41:33;4.30;99.90
530;DHT22;251;48.704;9.210;2023-12-20T07:44:01;4.40;99.90
530;DHT22;251;48.704;9.210;2023-12-20T07:46:28;4.40;99.90
530;DHT22;251;48.704;9.210;2023-12-20T07:48:56;4.40;99.90
530;DHT22;251;48.704;9.210;2023-12-20T07:51:23;4.40;99.90
530;DHT22;251;48.704;9.210;2023-12-20T07:53:49;4.40;99.90
530;DHT22;251;48.704;9.210;2023-12-20T07:56:17;4.40;99.90
530;DHT22;251;48.704;9.210;2023-12-20T07:58:44;4.50;99.90
530;DHT22;251;48.704;9.210;2023-12-20T08:01:11;4.50;99.90
530;DHT22;251;48.704;9.210;2023-12-20T08:03:38;4.50;99.90
530;DHT22;251;48.704;9.210;2023-12-20T08:06:06;4.50;99.90
530;DHT22;251;48.704;9.210;2023-12-20T08:08:33;4.60;99.90
530;DHT22;251;48.704;9.210;2023-12-20T08:11:00;4.60;99.90
530;DHT22;251;48.704;9.210;2023-12-20T08:13:28;4.60;99.90
530;DHT22;251;48.704;9.210;2023-12-20T08:15:55;4.60;99.90
530;DHT22;251;48.704;9.210;2023-12-20T08:18:22;4.60;99.90
530;DHT22;251;48.704;9.210;2023-12-20T08:20:49;4.60;99.90
530;DHT22;251;48.704;9.210;2023-12-20T08:23:19;4.60;99.90
530;DHT22;251;48.704;9.210;2023-12-20T08:25:47;4.60;99.90
530;DHT22;251;48.704;9.210;2023-12-20T08:28:14;4.50;99.90
530;DHT22;251;48.704;9.210;2023-12-20T08:30:41;4.60;99.90
530;DHT22;251;48.704;9.210;2023-12-20T08:33:08;4.50;99.90
530;DHT22;251;48.704;9.210;2023-12-20T08:35:39;4.60;99.90
530;DHT22;251;48.704;9.210;2023-12-20T08:38:06;4.60;99.90
530;DHT22;251;48.704;9.210;2023-12-20T08:40:34;4.60;99.90
530;DHT22;251;48.704;9.210;2023-12-20T08:43:01;4.50;99.90
530;DHT22;251;48.704;9.210;2023-12-20T08:45:28;4.60;99.90
530;DHT22;251;48.704;9.210;2023-12-20T08:47:54;4.50;99.90
530;DHT22;251;48.704;9.210;2023-12-20T08:50:21;4.50;99.90
530;DHT22;251;48.704;9.210;2023-12-20T08:52:48;4.50;99.90
530;DHT22;251;48.704;9.210;2023-12-20T08:55:15;4.50;99.90
530;DHT22;251;48.704;9.210;2023-12-20T08:57:44;4.50;99.90
530;DHT22;251;48.704;9.210;2023-12-20T09:00:12;4.50;99.90
530;DHT22;251;48.704;9.210;2023-12-20T09:02:40;4.50;99.90
530;DHT22;251;48.704;9.210;2023-12-20T09:05:08;4.50;99.90
530;DHT22;251;48.704;9.210;2023-12-20T09:07:35;4.50;99.90
530;DHT22;251;48.704;9.210;2023-12-20T09:10:02;4.40;99.70
530;DHT22;251;48.704;9.210;2023-12-20T09:12:29;4.30;99.90
530;DHT22;251;48.704;9.210;2023-12-20T09:14:57;4.20;99.90
530;DHT22;251;48.704;9.210;2023-12-20T09:17:24;4.20;99.90
530;DHT22;251;48.704;9.210;2023-12-20T09:19:51;4.10;99.20
530;DHT22;251;48.704;9.210;2023-12-20T09:22:19;4.10;98.50
530;DHT22;251;48.704;9.210;2023-12-20T09:24:46;4.00;97.50
530;DHT22;251;48.704;9.210;2023-12-20T09:27:13;4.00;96.80
530;DHT22;251;48.704;9.210;2023-12-20T09:29:40;3.90;95.10
530;DHT22;251;48.704;9.210;2023-12-20T09:32:08;3.90;93.10
530;DHT22;251;48.704;9.210;2023-12-20T09:34:35;3.90;91.30
530;DHT22;251;48.704;9.210;2023-12-20T09:37:03;3.90;89.00
530;DHT22;251;48.704;9.210;2023-12-20T09:39:31;3.90;90.10
530;DHT22;251;48.704;9.210;2023-12-20T09:42:01;4.00;90.10
530;DHT22;251;48.704;9.210;2023-12-20T09:44:28;4.00;90.30
530;DHT22;251;48.704;9.210;2023-12-20T09:46:56;3.90;90.10
530;DHT22;251;48.704;9.210;2023-12-20T09:49:25;3.90;89.00
530;DHT22;251;48.704;9.210;2023-12-20T09:51:54;3.90;84.70
530;DHT22;251;48.704;9.210;2023-12-20T09:54:22;4.00;83.70
530;DHT22;251;48.704;9.210;2023-12-20T09:56:50;4.00;83.00
530;DHT22;251;48.704;9.210;2023-12-20T09:59:17;4.00;81.40
530;DHT22;251;48.704;9.210;2023-12-20T10:01:44;4.10;76.70
530;DHT22;251;48.704;9.210;2023-12-20T10:04:12;4.20;77.90
530;DHT22;251;48.704;9.210;2023-12-20T10:06:41;4.20;74.40
530;DHT22;251;48.704;9.210;2023-12-20T10:09:08;4.20;74.10
530;DHT22;251;48.704;9.210;2023-12-20T10:11:35;4.30;72.00
530;DHT22;251;48.704;9.210;2023-12-20T10:14:04;4.40;67.30
530;DHT22;251;48.704;9.210;2023-12-20T10:16:32;4.40;62.00
530;DHT22;251;48.704;9.210;2023-12-20T10:18:59;4.50;59.10
530;DHT22;251;48.704;9.210;2023-12-20T10:21:26;4.60;55.30
530;DHT22;251;48.704;9.210;2023-12-20T10:24:00;4.60;55.90
530;DHT22;251;48.704;9.210;2023-12-20T10:26:27;4.70;55.10
530;DHT22;251;48.704;9.210;2023-12-20T10:28:56;4.80;54.00
530;DHT22;251;48.704;9.210;2023-12-20T10:31:29;5.00;52.80
530;DHT22;251;48.704;9.210;2023-12-20T10:33:57;5.20;48.10
530;DHT22;251;48.704;9.210;2023-12-20T10:36:25;5.40;48.30
530;DHT22;251;48.704;9.210;2023-12-20T10:38:53;5.50;47.60
530;DHT22;251;48.704;9.210;2023-12-20T10:41:25;5.70;47.10
530;DHT22;251;48.704;9.210;2023-12-20T10:43:55;5.90;44.20
530;DHT22;251;48.704;9.210;2023-12-20T10:46:22;5.90;40.90
530;DHT22;251;48.704;9.210;2023-12-20T10:48:53;6.00;41.30
530;DHT22;251;48.704;9.210;2023-12-20T10:51:21;6.00;40.10
530;DHT22;251;48.704;9.210;2023-12-20T10:53:48;6.10;38.90
530;DHT22;251;48.704;9.210;2023-12-20T10:56:16;6.00;37.70
530;DHT22;251;48.704;9.210;2023-12-20T10:58:45;6.00;37.00
530;DHT22;251;48.704;9.210;2023-12-20T11:01:13;6.00;36.70
530;DHT22;251;48.704;9.210;2023-12-20T11:03:44;6.00;35.30
530;DHT22;251;48.704;9.210;2023-12-20T11:06:21;6.00;35.50
530;DHT22;251;48.704;9.210;2023-12-20T11:08:55;6.00;36.90
530;DHT22;251;48.704;9.210;2023-12-20T11:11:32;6.00;35.90
530;DHT22;251;48.704;9.210;2023-12-20T11:14:06;6.00;34.60
530;DHT22;251;48.704;9.210;2023-12-20T11:16:38;6.00;34.90
530;DHT22;251;48.704;9.210;2023-12-20T11:19:05;6.00;34.90
530;DHT22;251;48.704;9.210;2023-12-20T11:21:32;6.00;34.90
530;DHT22;251;48.704;9.210;2023-12-20T11:23:59;6.00;33.90
530;DHT22;251;48.704;9.210;2023-12-20T11:26:27;5.90;32.10
530;DHT22;251;48.704;9.210;2023-12-20T11:28:54;5.90;32.70
530;DHT22;251;48.704;9.210;2023-12-20T11:31:22;6.00;33.50
530;DHT22;251;48.704;9.210;2023-12-20T11:33:49;5.90;33.00
530;DHT22;251;48.704;9.210;2023-12-20T11:36:18;5.90;32.50
530;DHT22;251;48.704;9.210;2023-12-20T11:38:55;5.90;32.80
530;DHT22;251;48.704;9.210;2023-12-20T11:41:22;5.90;30.60
530;DHT22;251;48.704;9.210;2023-12-20T11:43:52;5.80;31.60
530;DHT22;251;48.704;9.210;2023-12-20T11:46:22;5.80;31.70
530;DHT22;251;48.704;9.210;2023-12-20T11:48:49;5.90;31.10
530;DHT22;251;48.704;9.210;2023-12-20T11:51:15;5.90;32.20
530;DHT22;251;48.704;9.210;2023-12-20T11:53:42;5.90;32.40
530;DHT22;251;48.704;9.210;2023-12-20T11:56:09;5.90;31.40
530;DHT22;251;48.704;9.210;2023-12-20T11:58:36;5.90;30.30
530;DHT22;251;48.704;9.210;2023-12-20T12:01:04;6.00;30.10
530;DHT22;251;48.704;9.210;2023-12-20T12:03:34;5.90;28.70
530;DHT22;251;48.704;9.210;2023-12-20T12:06:04;5.90;29.90
530;DHT22;251;48.704;9.210;2023-12-20T12:08:33;5.80;28.60
530;DHT22;251;48.704;9.210;2023-12-20T12:13:41;5.70;28.70
530;DHT22;251;48.704;9.210;2023-12-20T12:16:10;5.70;28.70
530;DHT22;251;48.704;9.210;2023-12-20T12:18:38;5.70;30.00
530;DHT22;251;48.704;9.210;2023-12-20T12:21:07;5.70;30.30
530;DHT22;251;48.704;9.210;2023-12-20T12:23:34;5.60;29.80
530;DHT22;251;48.704;9.210;2023-12-20T12:26:03;5.60;28.20
530;DHT22;251;48.704;9.210;2023-12-20T12:28:30;5.60;29.80
530;DHT22;251;48.704;9.210;2023-12-20T12:30:58;5.60;28.50
530;DHT22;251;48.704;9.210;2023-12-20T12:33:25;5.70;29.80
530;DHT22;251;48.704;9.210;2023-12-20T12:35:54;5.70;29.30
530;DHT22;251;48.704;9.210;2023-12-20T12:38:21;5.80;29.30
530;DHT22;251;48.704;9.210;2023-12-20T12:40:49;5.80;29.00
530;DHT22;251;48.704;9.210;2023-12-20T12:43:16;5.80;29.10
530;DHT22;251;48.704;9.210;2023-12-20T12:45:42;5.80;27.90
530;DHT22;251;48.704;9.210;2023-12-20T12:48:09;5.80;29.00
530;DHT22;251;48.704;9.210;2023-12-20T12:50:36;5.90;28.00
530;DHT22;251;48.704;9.210;2023-12-20T12:53:04;5.90;26.40
530;DHT22;251;48.704;9.210;2023-12-20T12:55:31;6.00;27.50
530;DHT22;251;48.704;9.210;2023-12-20T12:57:58;6.00;26.40
530;DHT22;251;48.704;9.210;2023-12-20T13:00:24;6.10;26.20
530;DHT22;251;48.704;9.210;2023-12-20T13:02:51;6.20;26.00
530;DHT22;251;48.704;9.210;2023-12-20T13:05:18;6.20;26.90
530;DHT22;251;48.704;9.210;2023-12-20T13:07:45;6.20;26.30
530;DHT22;251;48.704;9.210;2023-12-20T13:10:13;6.20;26.70
530;DHT22;251;48.704;9.210;2023-12-20T13:12:42;6.20;26.50
530;DHT22;251;48.704;9.210;2023-12-20T13:15:09;6.20;26.00
530;DHT22;251;48.704;9.210;2023-12-20T13:17:36;6.20;25.90
530;DHT22;251;48.704;9.210;2023-12-20T13:20:04;6.20;27.20
530;DHT22;251;48.704;9.210;2023-12-20T13:22:31;6.20;26.80
530;DHT22;251;48.704;9.210;2023-12-20T13:24:58;6.20;26.70
530;DHT22;251;48.704;9.210;2023-12-20T13:27:26;6.20;26.70
530;DHT22;251;48.704;9.210;2023-12-20T13:29:53;6.20;26.60
530;DHT22;251;48.704;9.210;2023-12-20T13:32:20;6.10;27.00
530;DHT22;251;48.704;9.210;2023-12-20T13:34:47;6.10;27.40
530;DHT22;251;48.704;9.210;2023-12-20T13:37:15;6.10;26.80
530;DHT22;251;48.704;9.210;2023-12-20T13:39:42;6.10;27.40
530;DHT22;251;48.704;9.210;2023-12-20T13:42:09;6.10;27.70
530;DHT22;251;48.704;9.210;2023-12-20T13:44:37;6.20;27.40
530;DHT22;251;48.704;9.210;2023-12-20T13:47:04;6.20;27.10
530;DHT22;251;48.704;9.210;2023-12-20T13:49:31;6.20;27.00
530;DHT22;251;48.704;9.210;2023-12-20T13:51:58;6.20;26.80
530;DHT22;251;48.704;9.210;2023-12-20T13:54:26;6.20;27.60
530;DHT22;251;48.704;9.210;2023-12-20T13:56:52;6.10;27.40
530;DHT22;251;48.704;9.210;2023-12-20T13:59:19;6.10;27.30
530;DHT22;251;48.704;9.210;2023-12-20T14:01:47;6.00;27.30
530;DHT22;251;48.704;9.210;2023-12-20T14:04:15;6.00;27.70
530;DHT22;251;48.704;9.210;2023-12-20T14:06:42;5.90;28.10
530;DHT22;251;48.704;9.210;2023-12-20T14:09:09;5.90;27.90
530;DHT22;251;48.704;9.210;2023-12-20T14:11:37;5.90;28.30
530;DHT22;251;48.704;9.210;2023-12-20T14:14:07;5.80;27.50
530;DHT22;251;48.704;9.210;2023-12-20T14:16:33;5.80;28.30
530;DHT22;251;48.704;9.210;2023-12-20T14:19:01;5.80;27.70
530;DHT22;251;48.704;9.210;2023-12-20T14:21:29;5.70;27.90
530;DHT22;251;48.704;9.210;2023-12-20T14:23:55;5.70;28.20
530;DHT22;251;48.704;9.210;2023-12-20T14:26:22;5.60;27.20
530;DHT22;251;48.704;9.210;2023-12-20T14:28:49;5.60;28.50
530;DHT22;251;48.704;9.210;2023-12-20T14:31:16;5.60;28.80
530;DHT22;251;48.704;9.210;2023-12-20T14:33:43;5.60;28.00
530;DHT22;251;48.704;9.210;2023-12-20T14:36:11;5.60;29.00
530;DHT22;251;48.704;9.210;2023-12-20T14:38:38;5.50;29.50
530;DHT22;251;48.704;9.210;2023-12-20T14:41:04;5.50;30.60
530;DHT22;251;48.704;9.210;2023-12-20T14:43:34;5.40;30.60
530;DHT22;251;48.704;9.210;2023-12-20T14:46:01;5.40;31.30
530;DHT22;251;48.704;9.210;2023-12-20T14:48:27;5.30;33.30
530;DHT22;251;48.704;9.210;2023-12-20T14:50:55;5.30;33.40
530;DHT22;251;48.704;9.210;2023-12-20T14:53:23;5.20;33.40
530;DHT22;251;48.704;9.210;2023-12-20T14:55:50;5.20;34.70
530;DHT22;251;48.704;9.210;2023-12-20T14:58:17;5.20;36.20
530;DHT22;251;48.704;9.210;2023-12-20T15:00:44;5.10;36.10
530;DHT22;251;48.704;9.210;2023-12-20T15:03:11;5.10;36.70
530;DHT22;251;48.704;9.210;2023-12-20T15:05:38;5.00;37.60
530;DHT22;251;48.704;9.210;2023-12-20T15:08:06;4.90;38.20
530;DHT22;251;48.704;9.210;2023-12-20T15:10:35;4.90;38.80
530;DHT22;251;48.704;9.210;2023-12-20T15:13:02;4.80;38.60
530;DHT22;251;48.704;9.210;2023-12-20T15:15:30;4.80;40.40
530;DHT22;251;48.704;9.210;2023-12-20T15:17:59;4.70;40.40
530;DHT22;251;48.704;9.210;2023-12-20T15:20:26;4.70;41.70
530;DHT22;251;48.704;9.210;2023-12-20T15:22:53;4.60;41.90
530;DHT22;251;48.704;9.210;2023-12-20T15:25:20;4.60;42.10
530;DHT22;251;48.704;9.210;2023-12-20T15:27:49;4.60;42.10
530;DHT22;251;48.704;9.210;2023-12-20T15:30:18;4.50;43.30
530;DHT22;251;48.704;9.210;2023-12-20T15:32:45;4.50;44.10
530;DHT22;251;48.704;9.210;2023-12-20T15:35:12;4.50;45.60
530;DHT22;251;48.704;9.210;2023-12-20T15:37:39;4.50;46.20
530;DHT22;251;48.704;9.210;2023-12-20T15:40:07;4.40;47.00
530;DHT22;251;48.704;9.210;2023-12-20T15:42:35;4.40;47.00
530;DHT22;251;48.704;9.210;2023-12-20T15:45:04;4.40;46.20
530;DHT22;251;48.704;9.210;2023-12-20T15:47:32;4.40;46.60
530;DHT22;251;48.704;9.210;2023-12-20T15:49:59;4.30;47.50
530;DHT22;251;48.704;9.210;2023-12-20T15:52:25;4.30;47.30
530;DHT22;251;48.704;9.210;2023-12-20T15:54:52;4.30;47.70
530;DHT22;251;48.704;9.210;2023-12-20T15:57:19;4.30;47.70
530;DHT22;251;48.704;9.210;2023-12-20T15:59:46;4.30;47.70
530;DHT22;251;48.704;9.210;2023-12-20T16:02:14;4.20;48.50
530;DHT22;251;48.704;9.210;2023-12-20T16:04:40;4.30;48.60
530;DHT22;251;48.704;9.210;2023-12-20T16:07:07;4.30;48.80
530;DHT22;251;48.704;9.210;2023-12-20T16:09:34;4.30;47.40
530;DHT22;251;48.704;9.210;2023-12-20T16:12:01;4.30;47.60
530;DHT22;251;48.704;9.210;2023-12-20T16:14:27;4.30;48.00
530;DHT22;251;48.704;9.210;2023-12-20T16:16:55;4.30;48.20
530;DHT22;251;48.704;9.210;2023-12-20T16:19:23;4.30;47.50
530;DHT22;251;48.704;9.210;2023-12-20T16:21:50;4.30;47.30
530;DHT22;251;48.704;9.210;2023-12-20T16:24:17;4.30;46.50
530;DHT22;251;48.704;9.210;2023-12-20T16:26:43;4.40;47.50
530;DHT22;251;48.704;9.210;2023-12-20T16:29:10;4.30;47.70
530;DHT22;251;48.704;9.210;2023-12-20T16:31:38;4.30;47.80
530;DHT22;251;48.704;9.210;2023-12-20T16:34:05;4.30;48.10
530;DHT22;251;48.704;9.210;2023-12-20T16:36:48;4.30;47.60
530;DHT22;251;48.704;9.210;2023-12-20T16:39:16;4.30;48.40
530;DHT22;251;48.704;9.210;2023-12-20T16:41:42;4.30;47.30
530;DHT22;251;48.704;9.210;2023-12-20T16:44:09;4.30;47.50
530;DHT22;251;48.704;9.210;2023-12-20T16:46:36;4.30;48.20
530;DHT22;251;48.704;9.210;2023-12-20T16:49:03;4.30;47.40
530;DHT22;251;48.704;9.210;2023-12-20T16:51:30;4.30;48.10
530;DHT22;251;48.704;9.210;2023-12-20T16:53:58;4.30;47.30